sensor_id;sensor_type;location;lat;lon;timestamp;temperature;humidity
44607;DHT22;30315;46.072;14.474;2022-09-29T00:00:43;15.90;99.90
44607;DHT22;30315;46.072;14.474;2022-09-29T00:03:10;15.90;99.90
44607;DHT22;30315;46.072;14.474;2022-09-29T00:05:37;15.90;99.90
44607;DHT22;30315;46.072;14.474;2022-09-29T00:08:03;16.00;99.90
44607;DHT22;30315;46.072;14.474;2022-09-29T00:10:30;15.90;99.90
44607;DHT22;30315;46.072;14.474;2022-09-29T00:12:57;16.00;99.90
44607;DHT22;30315;46.072;14.474;2022-09-29T00:15:24;16.00;99.90
44607;DHT22;30315;46.072;14.474;2022-09-29T00:17:51;15.90;99.90
44607;DHT22;30315;46.072;14.474;2022-09-29T00:20:37;15.90;99.90
44607;DHT22;30315;46.072;14.474;2022-09-29T00:23:04;16.00;99.90
44607;DHT22;30315;46.072;14.474;2022-09-29T00:25:31;16.00;99.90
44607;DHT22;30315;46.072;14.474;2022-09-29T00:27:58;15.90;99.90
44607;DHT22;30315;46.072;14.474;2022-09-29T00:30:25;15.90;99.90
44607;DHT22;30315;46.072;14.474;2022-09-29T00:32:52;15.90;99.90
44607;DHT22;30315;46.072;14.474;2022-09-29T00:35:18;15.90;99.90
44607;DHT22;30315;46.072;14.474;2022-09-29T00:37:45;15.90;99.90
44607;DHT22;30315;46.072;14.474;2022-09-29T00:40:12;15.90;99.90
44607;DHT22;30315;46.072;14.474;2022-09-29T00:42:39;15.90;99.90
44607;DHT22;30315;46.072;14.474;2022-09-29T00:45:13;15.90;99.90
44607;DHT22;30315;46.072;14.474;2022-09-29T00:47:42;15.90;99.90
44607;DHT22;30315;46.072;14.474;2022-09-29T00:52:39;15.90;99.90
44607;DHT22;30315;46.072;14.474;2022-09-29T00:57:49;15.90;99.90
44607;DHT22;30315;46.072;14.474;2022-09-29T01:00:17;15.90;99.90
44607;DHT22;30315;46.072;14.474;2022-09-29T01:02:49;15.90;99.90
44607;DHT22;30315;46.072;14.474;2022-09-29T01:05:20;15.90;99.90
44607;DHT22;30315;46.072;14.474;2022-09-29T01:07:49;15.90;99.90
44607;DHT22;30315;46.072;14.474;2022-09-29T01:10:17;15.90;99.90
44607;DHT22;30315;46.072;14.474;2022-09-29T01:12:44;15.90;99.90
44607;DHT22;30315;46.072;14.474;2022-09-29T01:15:15;15.90;99.90
44607;DHT22;30315;46.072;14.474;2022-09-29T01:17:42;15.90;99.90
44607;DHT22;30315;46.072;14.474;2022-09-29T01:20:10;15.90;99.90
44607;DHT22;30315;46.072;14.474;2022-09-29T01:23:03;15.90;99.90
44607;DHT22;30315;46.072;14.474;2022-09-29T01:33:48;15.80;99.90
44607;DHT22;30315;46.072;14.474;2022-09-29T01:39:14;15.90;99.90
44607;DHT22;30315;46.072;14.474;2022-09-29T01:41:45;15.80;99.90
44607;DHT22;30315;46.072;14.474;2022-09-29T01:49:36;15.90;99.90
44607;DHT22;30315;46.072;14.474;2022-09-29T01:52:11;15.90;99.90
44607;DHT22;30315;46.072;14.474;2022-09-29T01:57:10;15.90;99.90
44607;DHT22;30315;46.072;14.474;2022-09-29T01:59:50;15.90;99.90
44607;DHT22;30315;46.072;14.474;2022-09-29T02:02:20;15.80;99.90
44607;DHT22;30315;46.072;14.474;2022-09-29T02:04:52;15.90;99.90
44607;DHT22;30315;46.072;14.474;2022-09-29T02:07:21;15.90;99.90
44607;DHT22;30315;46.072;14.474;2022-09-29T02:09:52;15.90;99.90
44607;DHT22;30315;46.072;14.474;2022-09-29T02:15:17;16.00;99.90
44607;DHT22;30315;46.072;14.474;2022-09-29T02:17:46;15.90;99.90
44607;DHT22;30315;46.072;14.474;2022-09-29T02:20:13;16.00;99.90
44607;DHT22;30315;46.072;14.474;2022-09-29T02:22:40;15.90;99.90
44607;DHT22;30315;46.072;14.474;2022-09-29T02:25:08;16.00;99.90
44607;DHT22;30315;46.072;14.474;2022-09-29T02:27:36;16.00;99.90
44607;DHT22;30315;46.072;14.474;2022-09-29T02:30:03;15.90;99.90
44607;DHT22;30315;46.072;14.474;2022-09-29T02:32:32;15.90;99.90
44607;DHT22;30315;46.072;14.474;2022-09-29T02:35:00;15.90;99.90
44607;DHT22;30315;46.072;14.474;2022-09-29T02:37:40;15.90;99.90
44607;DHT22;30315;46.072;14.474;2022-09-29T02:40:17;15.90;99.90
44607;DHT22;30315;46.072;14.474;2022-09-29T02:45:32;15.90;99.90
44607;DHT22;30315;46.072;14.474;2022-09-29T03:01:13;16.00;99.90
44607;DHT22;30315;46.072;14.474;2022-09-29T03:03:42;16.00;99.90
44607;DHT22;30315;46.072;14.474;2022-09-29T03:06:09;16.00;99.90
44607;DHT22;30315;46.072;14.474;2022-09-29T03:08:36;16.00;99.90
44607;DHT22;30315;46.072;14.474;2022-09-29T03:11:03;16.00;99.90
44607;DHT22;30315;46.072;14.474;2022-09-29T03:13:30;16.00;99.90
44607;DHT22;30315;46.072;14.474;2022-09-29T03:15:56;16.00;99.90
44607;DHT22;30315;46.072;14.474;2022-09-29T03:18:23;15.90;99.90
44607;DHT22;30315;46.072;14.474;2022-09-29T03:20:52;15.90;99.90
44607;DHT22;30315;46.072;14.474;2022-09-29T03:23:19;15.90;99.90
44607;DHT22;30315;46.072;14.474;2022-09-29T03:25:45;15.90;99.90
44607;DHT22;30315;46.072;14.474;2022-09-29T03:28:13;15.90;99.90
44607;DHT22;30315;46.072;14.474;2022-09-29T03:30:42;16.00;99.90
44607;DHT22;30315;46.072;14.474;2022-09-29T03:33:09;16.00;99.90
44607;DHT22;30315;46.072;14.474;2022-09-29T03:35:35;16.00;99.90
44607;DHT22;30315;46.072;14.474;2022-09-29T03:38:04;16.00;99.90
44607;DHT22;30315;46.072;14.474;2022-09-29T03:40:31;16.00;99.90
44607;DHT22;30315;46.072;14.474;2022-09-29T03:42:58;16.00;99.90
44607;DHT22;30315;46.072;14.474;2022-09-29T03:45:25;16.00;99.90
44607;DHT22;30315;46.072;14.474;2022-09-29T03:47:52;16.00;99.90
44607;DHT22;30315;46.072;14.474;2022-09-29T03:50:19;16.00;99.90
44607;DHT22;30315;46.072;14.474;2022-09-29T03:52:45;16.00;99.90
44607;DHT22;30315;46.072;14.474;2022-09-29T03:55:12;16.00;99.90
44607;DHT22;30315;46.072;14.474;2022-09-29T03:57:39;16.00;99.90
44607;DHT22;30315;46.072;14.474;2022-09-29T04:00:06;16.00;99.90
44607;DHT22;30315;46.072;14.474;2022-09-29T04:02:33;15.90;99.90
44607;DHT22;30315;46.072;14.474;2022-09-29T04:05:01;15.90;99.90
44607;DHT22;30315;46.072;14.474;2022-09-29T04:07:28;16.00;99.90
44607;DHT22;30315;46.072;14.474;2022-09-29T04:09:54;15.90;99.90
44607;DHT22;30315;46.072;14.474;2022-09-29T04:12:21;16.00;99.90
44607;DHT22;30315;46.072;14.474;2022-09-29T04:14:48;15.90;99.90
44607;DHT22;30315;46.072;14.474;2022-09-29T04:17:15;15.90;99.90
44607;DHT22;30315;46.072;14.474;2022-09-29T04:19:42;16.00;99.90
44607;DHT22;30315;46.072;14.474;2022-09-29T04:22:09;15.90;99.90
44607;DHT22;30315;46.072;14.474;2022-09-29T04:24:37;15.90;99.90
44607;DHT22;30315;46.072;14.474;2022-09-29T04:27:04;15.90;99.90
44607;DHT22;30315;46.072;14.474;2022-09-29T04:29:30;15.90;99.90
44607;DHT22;30315;46.072;14.474;2022-09-29T04:31:57;15.90;99.90
44607;DHT22;30315;46.072;14.474;2022-09-29T04:34:24;15.90;99.90
44607;DHT22;30315;46.072;14.474;2022-09-29T04:36:51;15.90;99.90
44607;DHT22;30315;46.072;14.474;2022-09-29T04:39:18;15.90;99.90
44607;DHT22;30315;46.072;14.474;2022-09-29T04:41:45;15.90;99.90
44607;DHT22;30315;46.072;14.474;2022-09-29T04:44:12;15.90;99.90
44607;DHT22;30315;46.072;14.474;2022-09-29T04:46:39;15.90;99.90
44607;DHT22;30315;46.072;14.474;2022-09-29T04:49:06;15.90;99.90
44607;DHT22;30315;46.072;14.474;2022-09-29T04:51:32;15.90;99.90
44607;DHT22;30315;46.072;14.474;2022-09-29T04:53:59;15.90;99.90
44607;DHT22;30315;46.072;14.474;2022-09-29T04:56:26;15.90;99.90
44607;DHT22;30315;46.072;14.474;2022-09-29T04:58:57;15.90;99.90
44607;DHT22;30315;46.072;14.474;2022-09-29T05:01:23;15.90;99.90
44607;DHT22;30315;46.072;14.474;2022-09-29T05:03:50;15.90;99.90
44607;DHT22;30315;46.072;14.474;2022-09-29T05:06:17;16.00;99.90
44607;DHT22;30315;46.072;14.474;2022-09-29T05:08:44;16.00;99.90
44607;DHT22;30315;46.072;14.474;2022-09-29T05:11:11;15.90;99.90
44607;DHT22;30315;46.072;14.474;2022-09-29T05:13:37;15.90;99.90
44607;DHT22;30315;46.072;14.474;2022-09-29T05:16:04;15.90;99.90
44607;DHT22;30315;46.072;14.474;2022-09-29T05:18:32;15.90;99.90
44607;DHT22;30315;46.072;14.474;2022-09-29T05:21:03;15.90;99.90
44607;DHT22;30315;46.072;14.474;2022-09-29T05:23:50;15.70;99.90
44607;DHT22;30315;46.072;14.474;2022-09-29T05:26:16;16.00;99.90
44607;DHT22;30315;46.072;14.474;2022-09-29T05:28:44;15.90;99.90
44607;DHT22;30315;46.072;14.474;2022-09-29T05:31:11;15.90;99.90
44607;DHT22;30315;46.072;14.474;2022-09-29T05:33:38;16.00;99.90
44607;DHT22;30315;46.072;14.474;2022-09-29T05:36:06;16.00;99.90
44607;DHT22;30315;46.072;14.474;2022-09-29T05:38:33;16.00;99.90
44607;DHT22;30315;46.072;14.474;2022-09-29T05:41:04;16.00;99.90
44607;DHT22;30315;46.072;14.474;2022-09-29T05:43:31;16.00;99.90
44607;DHT22;30315;46.072;14.474;2022-09-29T05:45:59;16.00;99.90
44607;DHT22;30315;46.072;14.474;2022-09-29T05:48:26;16.00;99.90
44607;DHT22;30315;46.072;14.474;2022-09-29T05:50:56;16.00;99.90
44607;DHT22;30315;46.072;14.474;2022-09-29T05:53:23;16.00;99.90
44607;DHT22;30315;46.072;14.474;2022-09-29T05:55:50;15.90;99.90
44607;DHT22;30315;46.072;14.474;2022-09-29T05:58:17;15.80;99.90
44607;DHT22;30315;46.072;14.474;2022-09-29T06:00:45;15.90;99.90
44607;DHT22;30315;46.072;14.474;2022-09-29T06:03:12;15.80;99.90
44607;DHT22;30315;46.072;14.474;2022-09-29T06:05:38;15.90;99.90
44607;DHT22;30315;46.072;14.474;2022-09-29T06:08:06;15.90;99.90
44607;DHT22;30315;46.072;14.474;2022-09-29T06:10:33;15.80;99.90
44607;DHT22;30315;46.072;14.474;2022-09-29T06:13:00;15.80;99.90
44607;DHT22;30315;46.072;14.474;2022-09-29T06:15:28;15.80;99.90
44607;DHT22;30315;46.072;14.474;2022-09-29T06:17:59;15.80;99.90
44607;DHT22;30315;46.072;14.474;2022-09-29T06:20:26;15.80;99.90
44607;DHT22;30315;46.072;14.474;2022-09-29T06:22:53;15.90;99.90
44607;DHT22;30315;46.072;14.474;2022-09-29T06:25:21;15.90;99.90
44607;DHT22;30315;46.072;14.474;2022-09-29T06:27:48;15.90;99.90
44607;DHT22;30315;46.072;14.474;2022-09-29T06:30:14;15.90;99.90
44607;DHT22;30315;46.072;14.474;2022-09-29T06:32:41;15.90;99.90
44607;DHT22;30315;46.072;14.474;2022-09-29T06:35:08;16.00;99.90
44607;DHT22;30315;46.072;14.474;2022-09-29T06:38:07;16.00;99.90
44607;DHT22;30315;46.072;14.474;2022-09-29T06:40:34;16.00;99.90
44607;DHT22;30315;46.072;14.474;2022-09-29T06:43:01;16.00;99.90
44607;DHT22;30315;46.072;14.474;2022-09-29T06:45:28;16.00;99.90
44607;DHT22;30315;46.072;14.474;2022-09-29T06:47:58;16.00;99.90
44607;DHT22;30315;46.072;14.474;2022-09-29T06:50:25;16.00;99.90
44607;DHT22;30315;46.072;14.474;2022-09-29T06:52:52;16.00;99.90
44607;DHT22;30315;46.072;14.474;2022-09-29T06:55:29;15.90;99.90
44607;DHT22;30315;46.072;14.474;2022-09-29T06:57:55;16.00;99.90
44607;DHT22;30315;46.072;14.474;2022-09-29T07:00:29;16.00;99.90
44607;DHT22;30315;46.072;14.474;2022-09-29T07:02:55;16.00;99.90
44607;DHT22;30315;46.072;14.474;2022-09-29T07:05:22;16.00;99.90
44607;DHT22;30315;46.072;14.474;2022-09-29T07:07:49;16.00;99.90
44607;DHT22;30315;46.072;14.474;2022-09-29T07:10:20;16.00;99.90
44607;DHT22;30315;46.072;14.474;2022-09-29T07:12:46;16.00;99.90
44607;DHT22;30315;46.072;14.474;2022-09-29T07:15:13;16.00;99.90
44607;DHT22;30315;46.072;14.474;2022-09-29T07:17:40;16.00;99.90
44607;DHT22;30315;46.072;14.474;2022-09-29T07:20:07;16.00;99.90
44607;DHT22;30315;46.072;14.474;2022-09-29T07:22:35;16.00;99.90
44607;DHT22;30315;46.072;14.474;2022-09-29T07:25:02;16.00;99.90
44607;DHT22;30315;46.072;14.474;2022-09-29T07:27:29;16.00;99.90
44607;DHT22;30315;46.072;14.474;2022-09-29T07:29:56;16.00;99.90
44607;DHT22;30315;46.072;14.474;2022-09-29T07:32:30;15.90;99.90
44607;DHT22;30315;46.072;14.474;2022-09-29T07:34:58;15.80;99.90
44607;DHT22;30315;46.072;14.474;2022-09-29T07:37:26;15.90;99.90
44607;DHT22;30315;46.072;14.474;2022-09-29T07:39:52;15.90;99.90
44607;DHT22;30315;46.072;14.474;2022-09-29T07:42:19;15.90;99.90
44607;DHT22;30315;46.072;14.474;2022-09-29T07:44:53;15.90;99.90
44607;DHT22;30315;46.072;14.474;2022-09-29T07:47:20;15.90;99.90
44607;DHT22;30315;46.072;14.474;2022-09-29T07:49:47;15.90;99.90
44607;DHT22;30315;46.072;14.474;2022-09-29T07:52:14;16.00;99.90
44607;DHT22;30315;46.072;14.474;2022-09-29T07:54:41;15.90;99.90
44607;DHT22;30315;46.072;14.474;2022-09-29T07:57:08;16.00;99.90
44607;DHT22;30315;46.072;14.474;2022-09-29T07:59:35;15.90;99.90
44607;DHT22;30315;46.072;14.474;2022-09-29T08:02:01;16.00;99.90
44607;DHT22;30315;46.072;14.474;2022-09-29T08:04:29;16.00;99.90
44607;DHT22;30315;46.072;14.474;2022-09-29T08:06:56;16.00;99.90
44607;DHT22;30315;46.072;14.474;2022-09-29T08:09:23;16.10;99.90
44607;DHT22;30315;46.072;14.474;2022-09-29T08:12:05;16.10;99.90
44607;DHT22;30315;46.072;14.474;2022-09-29T08:14:34;16.10;99.90
44607;DHT22;30315;46.072;14.474;2022-09-29T08:17:01;16.10;99.90
44607;DHT22;30315;46.072;14.474;2022-09-29T08:19:27;16.20;99.90
44607;DHT22;30315;46.072;14.474;2022-09-29T08:21:54;16.20;99.90
44607;DHT22;30315;46.072;14.474;2022-09-29T08:24:21;16.20;99.90
44607;DHT22;30315;46.072;14.474;2022-09-29T08:26:48;15.90;99.90
44607;DHT22;30315;46.072;14.474;2022-09-29T08:29:15;16.20;99.90
44607;DHT22;30315;46.072;14.474;2022-09-29T08:31:43;16.30;99.90
44607;DHT22;30315;46.072;14.474;2022-09-29T08:34:10;16.20;99.90
44607;DHT22;30315;46.072;14.474;2022-09-29T08:36:39;16.20;99.90
44607;DHT22;30315;46.072;14.474;2022-09-29T08:39:08;16.20;99.90
44607;DHT22;30315;46.072;14.474;2022-09-29T08:41:57;16.30;99.90
44607;DHT22;30315;46.072;14.474;2022-09-29T08:47:07;16.20;99.90
44607;DHT22;30315;46.072;14.474;2022-09-29T08:49:39;16.40;99.90
44607;DHT22;30315;46.072;14.474;2022-09-29T08:52:09;16.30;99.90
44607;DHT22;30315;46.072;14.474;2022-09-29T08:54:43;16.30;99.90
44607;DHT22;30315;46.072;14.474;2022-09-29T08:57:16;16.40;99.90
44607;DHT22;30315;46.072;14.474;2022-09-29T08:59:47;16.40;99.90
44607;DHT22;30315;46.072;14.474;2022-09-29T09:13:13;16.40;99.90
44607;DHT22;30315;46.072;14.474;2022-09-29T09:25:56;16.30;99.90
44607;DHT22;30315;46.072;14.474;2022-09-29T09:30:54;16.30;99.90
44607;DHT22;30315;46.072;14.474;2022-09-29T09:33:36;16.30;99.90
44607;DHT22;30315;46.072;14.474;2022-09-29T09:36:12;16.30;99.90
44607;DHT22;30315;46.072;14.474;2022-09-29T09:38:57;16.30;99.90
44607;DHT22;30315;46.072;14.474;2022-09-29T09:41:25;16.30;99.90
44607;DHT22;30315;46.072;14.474;2022-09-29T09:44:02;16.30;99.90
44607;DHT22;30315;46.072;14.474;2022-09-29T09:46:41;16.30;99.90
44607;DHT22;30315;46.072;14.474;2022-09-29T09:51:39;16.30;99.90
44607;DHT22;30315;46.072;14.474;2022-09-29T09:54:15;16.20;99.90
44607;DHT22;30315;46.072;14.474;2022-09-29T09:56:53;16.30;99.90
44607;DHT22;30315;46.072;14.474;2022-09-29T09:59:41;16.30;99.90
44607;DHT22;30315;46.072;14.474;2022-09-29T10:02:19;16.30;99.90
44607;DHT22;30315;46.072;14.474;2022-09-29T10:04:48;16.30;99.90
44607;DHT22;30315;46.072;14.474;2022-09-29T10:07:20;16.30;99.90
44607;DHT22;30315;46.072;14.474;2022-09-29T10:09:47;16.20;99.90
44607;DHT22;30315;46.072;14.474;2022-09-29T10:12:18;16.50;99.90
44607;DHT22;30315;46.072;14.474;2022-09-29T10:15:00;16.30;99.90
44607;DHT22;30315;46.072;14.474;2022-09-29T10:17:32;16.20;99.90
44607;DHT22;30315;46.072;14.474;2022-09-29T10:20:02;16.30;99.90
44607;DHT22;30315;46.072;14.474;2022-09-29T10:22:31;16.30;99.90
44607;DHT22;30315;46.072;14.474;2022-09-29T10:25:15;16.40;99.90
44607;DHT22;30315;46.072;14.474;2022-09-29T10:27:45;16.40;99.90
44607;DHT22;30315;46.072;14.474;2022-09-29T10:30:33;16.40;99.90
44607;DHT22;30315;46.072;14.474;2022-09-29T10:33:01;16.40;99.90
44607;DHT22;30315;46.072;14.474;2022-09-29T10:35:36;16.40;99.90
44607;DHT22;30315;46.072;14.474;2022-09-29T10:38:13;16.50;99.90
44607;DHT22;30315;46.072;14.474;2022-09-29T10:41:00;16.40;99.90
44607;DHT22;30315;46.072;14.474;2022-09-29T10:43:36;16.40;99.90
44607;DHT22;30315;46.072;14.474;2022-09-29T10:46:04;16.40;99.90
44607;DHT22;30315;46.072;14.474;2022-09-29T10:48:31;16.30;99.90
44607;DHT22;30315;46.072;14.474;2022-09-29T10:51:00;16.30;99.90
44607;DHT22;30315;46.072;14.474;2022-09-29T10:53:32;16.30;99.70
44607;DHT22;30315;46.072;14.474;2022-09-29T10:56:00;16.20;98.50
44607;DHT22;30315;46.072;14.474;2022-09-29T10:58:32;16.00;97.90
44607;DHT22;30315;46.072;14.474;2022-09-29T11:01:20;15.90;98.00
44607;DHT22;30315;46.072;14.474;2022-09-29T11:03:55;15.80;97.90
44607;DHT22;30315;46.072;14.474;2022-09-29T11:06:38;15.70;98.40
44607;DHT22;30315;46.072;14.474;2022-09-29T11:09:24;15.70;99.10
44607;DHT22;30315;46.072;14.474;2022-09-29T11:11:53;15.70;99.40
44607;DHT22;30315;46.072;14.474;2022-09-29T11:19:49;15.50;99.80
44607;DHT22;30315;46.072;14.474;2022-09-29T11:25:15;15.80;99.60
44607;DHT22;30315;46.072;14.474;2022-09-29T11:30:37;15.80;99.40
44607;DHT22;30315;46.072;14.474;2022-09-29T11:33:21;15.70;99.40
44607;DHT22;30315;46.072;14.474;2022-09-29T11:36:02;15.70;99.20
44607;DHT22;30315;46.072;14.474;2022-09-29T11:54:52;15.50;98.20
44607;DHT22;30315;46.072;14.474;2022-09-29T12:00:11;15.50;98.00
44607;DHT22;30315;46.072;14.474;2022-09-29T12:10:24;15.40;98.40
44607;DHT22;30315;46.072;14.474;2022-09-29T12:18:12;15.40;98.70
44607;DHT22;30315;46.072;14.474;2022-09-29T12:20:41;15.40;98.40
44607;DHT22;30315;46.072;14.474;2022-09-29T12:23:10;15.40;98.60
44607;DHT22;30315;46.072;14.474;2022-09-29T12:25:39;15.70;98.80
44607;DHT22;30315;46.072;14.474;2022-09-29T12:28:16;15.40;98.80
44607;DHT22;30315;46.072;14.474;2022-09-29T12:30:45;15.40;98.20
44607;DHT22;30315;46.072;14.474;2022-09-29T12:33:19;15.30;97.50
44607;DHT22;30315;46.072;14.474;2022-09-29T12:38:54;15.30;97.70
44607;DHT22;30315;46.072;14.474;2022-09-29T12:41:23;15.30;97.30
44607;DHT22;30315;46.072;14.474;2022-09-29T12:44:05;15.30;97.70
44607;DHT22;30315;46.072;14.474;2022-09-29T12:46:43;15.30;98.00
44607;DHT22;30315;46.072;14.474;2022-09-29T12:49:21;15.30;98.00
44607;DHT22;30315;46.072;14.474;2022-09-29T12:51:50;15.30;98.00
44607;DHT22;30315;46.072;14.474;2022-09-29T12:54:24;15.30;97.80
44607;DHT22;30315;46.072;14.474;2022-09-29T12:59:28;15.20;97.70
44607;DHT22;30315;46.072;14.474;2022-09-29T13:01:58;15.30;98.00
44607;DHT22;30315;46.072;14.474;2022-09-29T13:07:06;15.20;97.70
44607;DHT22;30315;46.072;14.474;2022-09-29T13:22:51;15.10;97.50
44607;DHT22;30315;46.072;14.474;2022-09-29T13:28:01;15.10;97.50
44607;DHT22;30315;46.072;14.474;2022-09-29T13:30:32;15.10;97.60
44607;DHT22;30315;46.072;14.474;2022-09-29T13:35:27;15.10;97.80
44607;DHT22;30315;46.072;14.474;2022-09-29T13:37:54;15.20;97.90
44607;DHT22;30315;46.072;14.474;2022-09-29T13:40:24;15.10;98.20
44607;DHT22;30315;46.072;14.474;2022-09-29T13:42:53;15.20;98.30
44607;DHT22;30315;46.072;14.474;2022-09-29T13:48:01;15.20;98.40
44607;DHT22;30315;46.072;14.474;2022-09-29T14:01:01;15.10;97.60
44607;DHT22;30315;46.072;14.474;2022-09-29T14:06:21;15.00;97.60
44607;DHT22;30315;46.072;14.474;2022-09-29T14:09:11;15.00;97.60
44607;DHT22;30315;46.072;14.474;2022-09-29T14:11:58;15.00;97.80
44607;DHT22;30315;46.072;14.474;2022-09-29T14:14:30;15.00;98.00
44607;DHT22;30315;46.072;14.474;2022-09-29T14:27:29;14.90;97.40
44607;DHT22;30315;46.072;14.474;2022-09-29T14:33:14;14.80;97.00
44607;DHT22;30315;46.072;14.474;2022-09-29T14:35:16;14.60;97.00
44607;DHT22;30315;46.072;14.474;2022-09-29T14:37:44;14.60;97.50
44607;DHT22;30315;46.072;14.474;2022-09-29T14:40:15;14.60;97.80
44607;DHT22;30315;46.072;14.474;2022-09-29T14:43:04;14.60;97.90
44607;DHT22;30315;46.072;14.474;2022-09-29T14:45:34;14.60;98.30
44607;DHT22;30315;46.072;14.474;2022-09-29T14:48:27;14.70;98.60
44607;DHT22;30315;46.072;14.474;2022-09-29T14:51:25;14.70;98.70
44607;DHT22;30315;46.072;14.474;2022-09-29T14:54:17;14.80;98.40
44607;DHT22;30315;46.072;14.474;2022-09-29T14:56:54;14.80;98.60
44607;DHT22;30315;46.072;14.474;2022-09-29T15:02:06;14.80;98.80
44607;DHT22;30315;46.072;14.474;2022-09-29T15:04:38;14.90;98.60
44607;DHT22;30315;46.072;14.474;2022-09-29T15:07:09;14.80;98.60
44607;DHT22;30315;46.072;14.474;2022-09-29T15:09:37;14.70;98.60
44607;DHT22;30315;46.072;14.474;2022-09-29T15:12:14;14.70;98.50
44607;DHT22;30315;46.072;14.474;2022-09-29T15:14:42;14.80;99.90
44607;DHT22;30315;46.072;14.474;2022-09-29T15:17:15;14.90;99.60
44607;DHT22;30315;46.072;14.474;2022-09-29T15:28:16;15.00;98.70
44607;DHT22;30315;46.072;14.474;2022-09-29T15:30:43;15.00;98.40
44607;DHT22;30315;46.072;14.474;2022-09-29T15:35:44;15.00;98.20
44607;DHT22;30315;46.072;14.474;2022-09-29T15:40:51;15.00;98.30
44607;DHT22;30315;46.072;14.474;2022-09-29T15:43:19;15.00;98.50
44607;DHT22;30315;46.072;14.474;2022-09-29T15:45:58;15.00;98.40
44607;DHT22;30315;46.072;14.474;2022-09-29T15:48:25;15.00;98.20
44607;DHT22;30315;46.072;14.474;2022-09-29T15:50:53;15.00;98.10
44607;DHT22;30315;46.072;14.474;2022-09-29T15:53:24;15.00;98.10
44607;DHT22;30315;46.072;14.474;2022-09-29T15:55:53;14.90;98.10
44607;DHT22;30315;46.072;14.474;2022-09-29T15:58:33;14.90;98.00
44607;DHT22;30315;46.072;14.474;2022-09-29T16:01:03;14.90;98.10
44607;DHT22;30315;46.072;14.474;2022-09-29T16:03:42;14.90;98.10
44607;DHT22;30315;46.072;14.474;2022-09-29T16:08:45;14.90;98.20
44607;DHT22;30315;46.072;14.474;2022-09-29T16:11:19;14.90;98.20
44607;DHT22;30315;46.072;14.474;2022-09-29T16:13:48;14.90;98.10
44607;DHT22;30315;46.072;14.474;2022-09-29T16:16:16;14.90;98.10
44607;DHT22;30315;46.072;14.474;2022-09-29T16:18:45;14.80;98.00
44607;DHT22;30315;46.072;14.474;2022-09-29T16:21:17;14.80;98.10
44607;DHT22;30315;46.072;14.474;2022-09-29T16:24:05;14.80;98.00
44607;DHT22;30315;46.072;14.474;2022-09-29T16:31:33;14.80;97.90
44607;DHT22;30315;46.072;14.474;2022-09-29T16:34:01;14.80;97.80
44607;DHT22;30315;46.072;14.474;2022-09-29T16:36:29;14.70;98.00
44607;DHT22;30315;46.072;14.474;2022-09-29T16:39:02;14.70;98.00
44607;DHT22;30315;46.072;14.474;2022-09-29T16:41:29;14.70;98.20
44607;DHT22;30315;46.072;14.474;2022-09-29T16:44:43;14.60;98.30
44607;DHT22;30315;46.072;14.474;2022-09-29T16:49:27;14.70;98.50
44607;DHT22;30315;46.072;14.474;2022-09-29T16:51:55;14.70;98.50
44607;DHT22;30315;46.072;14.474;2022-09-29T16:54:27;14.80;98.60
44607;DHT22;30315;46.072;14.474;2022-09-29T16:59:40;14.80;98.50
44607;DHT22;30315;46.072;14.474;2022-09-29T17:02:10;14.80;98.10
44607;DHT22;30315;46.072;14.474;2022-09-29T17:04:37;14.70;98.10
44607;DHT22;30315;46.072;14.474;2022-09-29T17:07:03;14.70;98.40
44607;DHT22;30315;46.072;14.474;2022-09-29T17:09:30;14.80;98.60
44607;DHT22;30315;46.072;14.474;2022-09-29T17:11:57;14.70;98.60
44607;DHT22;30315;46.072;14.474;2022-09-29T17:14:25;14.80;98.60
44607;DHT22;30315;46.072;14.474;2022-09-29T17:16:52;14.80;98.70
44607;DHT22;30315;46.072;14.474;2022-09-29T17:19:19;14.70;98.80
44607;DHT22;30315;46.072;14.474;2022-09-29T17:21:54;14.80;98.80
44607;DHT22;30315;46.072;14.474;2022-09-29T17:24:22;14.80;98.50
44607;DHT22;30315;46.072;14.474;2022-09-29T17:26:48;14.70;98.30
44607;DHT22;30315;46.072;14.474;2022-09-29T17:29:34;14.80;98.30
44607;DHT22;30315;46.072;14.474;2022-09-29T17:32:01;14.70;98.40
44607;DHT22;30315;46.072;14.474;2022-09-29T17:34:28;14.70;98.10
44607;DHT22;30315;46.072;14.474;2022-09-29T17:36:58;14.60;97.60
44607;DHT22;30315;46.072;14.474;2022-09-29T17:39:27;14.60;97.70
44607;DHT22;30315;46.072;14.474;2022-09-29T17:41:54;14.50;97.80
44607;DHT22;30315;46.072;14.474;2022-09-29T17:44:21;14.60;98.20
44607;DHT22;30315;46.072;14.474;2022-09-29T17:46:48;14.60;98.40
44607;DHT22;30315;46.072;14.474;2022-09-29T17:49:20;14.60;98.60
44607;DHT22;30315;46.072;14.474;2022-09-29T17:51:46;14.60;98.60
44607;DHT22;30315;46.072;14.474;2022-09-29T17:54:13;14.60;98.40
44607;DHT22;30315;46.072;14.474;2022-09-29T17:56:40;14.70;98.30
44607;DHT22;30315;46.072;14.474;2022-09-29T17:59:08;14.60;98.10
44607;DHT22;30315;46.072;14.474;2022-09-29T18:01:36;14.70;98.10
44607;DHT22;30315;46.072;14.474;2022-09-29T18:04:04;14.70;98.30
44607;DHT22;30315;46.072;14.474;2022-09-29T18:06:31;14.70;98.50
44607;DHT22;30315;46.072;14.474;2022-09-29T18:09:00;14.70;98.60
44607;DHT22;30315;46.072;14.474;2022-09-29T18:11:27;14.70;98.80
44607;DHT22;30315;46.072;14.474;2022-09-29T18:13:54;14.70;98.90
44607;DHT22;30315;46.072;14.474;2022-09-29T18:16:21;14.80;98.90
44607;DHT22;30315;46.072;14.474;2022-09-29T18:18:49;14.80;98.90
44607;DHT22;30315;46.072;14.474;2022-09-29T18:21:23;14.70;98.90
44607;DHT22;30315;46.072;14.474;2022-09-29T18:23:50;14.80;99.60
44607;DHT22;30315;46.072;14.474;2022-09-29T18:26:17;14.80;99.30
44607;DHT22;30315;46.072;14.474;2022-09-29T18:28:44;14.80;99.10
44607;DHT22;30315;46.072;14.474;2022-09-29T18:31:17;14.80;98.70
44607;DHT22;30315;46.072;14.474;2022-09-29T18:33:45;14.80;98.70
44607;DHT22;30315;46.072;14.474;2022-09-29T18:36:12;14.80;98.80
44607;DHT22;30315;46.072;14.474;2022-09-29T18:38:40;14.70;98.90
44607;DHT22;30315;46.072;14.474;2022-09-29T18:41:09;14.80;99.00
44607;DHT22;30315;46.072;14.474;2022-09-29T18:43:38;14.80;99.00
44607;DHT22;30315;46.072;14.474;2022-09-29T18:46:05;14.80;99.00
44607;DHT22;30315;46.072;14.474;2022-09-29T18:48:32;14.80;99.00
44607;DHT22;30315;46.072;14.474;2022-09-29T18:50:59;14.80;98.80
44607;DHT22;30315;46.072;14.474;2022-09-29T18:53:26;14.80;98.20